Time;durP1;ratioP1;P1;durP2;ratioP2;P2;SDS_P1;SDS_P2;PMS_P1;PMS_P2;Temp;Humidity;BMP_temperature;BMP_pressure;BME280_temperature;BME280_humidity;BME280_pressure;Samples;Min_cycle;Max_cycle;Signal;HPM_P1;HPM_P2
2022/05/16 00:01:49;;;;;;;10.63;5.45;;;;;;;17.49;81.43;100216.63;4963439;28;20033;-76
2022/05/16 00:04:15;;;;;;;8.15;5.13;;;;;;;17.47;81.30;100213.38;4996804;28;20034;-76
2022/05/16 00:06:40;;;;;;;8.80;5.03;;;;;;;17.42;81.14;100213.59;4996771;28;20026;-76
2022/05/16 00:09:06;;;;;;;12.30;5.30;;;;;;;17.40;80.98;100213.91;4979466;28;20042;-77
2022/05/16 00:11:32;;;;;;;8.20;5.15;;;;;;;17.37;81.06;100208.19;4996375;28;20083;-77
2022/05/16 00:13:57;;;;;;;7.22;4.75;;;;;;;17.37;81.20;100202.56;4996746;28;20488;-76
2022/05/16 00:16:23;;;;;;;10.55;5.28;;;;;;;17.32;81.21;100214.03;4963061;28;20027;-76
2022/05/16 00:18:48;;;;;;;8.68;4.70;;;;;;;17.30;81.22;100211.56;4963380;28;20022;-76
2022/05/16 00:21:13;;;;;;;7.85;4.70;;;;;;;17.27;81.06;100219.84;4996683;28;20027;-76
2022/05/16 00:23:39;;;;;;;7.57;4.70;;;;;;;17.26;81.05;100219.03;4979299;28;20085;-77
2022/05/16 00:26:05;;;;;;;8.57;4.45;;;;;;;17.19;81.36;100222.41;4963164;28;20053;-76
2022/05/16 00:28:30;;;;;;;8.68;4.80;;;;;;;17.18;81.03;100222.75;4979210;28;20038;-76
2022/05/16 00:30:56;;;;;;;7.78;4.88;;;;;;;17.12;81.16;100208.13;4979170;28;20081;-76
2022/05/16 00:33:21;;;;;;;7.57;4.68;;;;;;;17.11;81.20;100206.47;4979264;28;20034;-76
2022/05/16 00:35:47;;;;;;;8.02;4.25;;;;;;;17.10;81.01;100198.41;4978899;28;20545;-76
2022/05/16 00:38:12;;;;;;;7.85;4.75;;;;;;;17.07;81.21;100205.53;4963113;28;20034;-77
2022/05/16 00:40:38;;;;;;;9.00;4.00;;;;;;;17.03;81.48;100193.34;4978009;28;20030;-76
2022/05/16 00:43:07;;;;;;;7.88;4.03;;;;;;;17.02;81.43;100207.72;4996393;28;20027;-76
2022/05/16 00:45:33;;;;;;;6.20;4.18;;;;;;;16.99;81.47;100203.63;5000173;28;20457;-76
2022/05/16 00:47:59;;;;;;;7.57;4.32;;;;;;;16.96;81.86;100204.31;4983122;28;20112;-76
2022/05/16 00:50:25;;;;;;;10.00;4.22;;;;;;;16.94;81.45;100209.47;4950629;28;20041;-76
2022/05/16 00:52:50;;;;;;;9.43;4.30;;;;;;;16.92;81.44;100215.41;4966659;28;20030;-76
2022/05/16 00:55:21;;;;;;;11.93;4.15;;;;;;;16.89;81.34;100210.50;5000018;28;20037;-76
2022/05/16 00:57:51;;;;;;;6.30;3.70;;;;;;;16.85;81.42;100195.50;4966652;28;20030;-76
2022/05/16 01:00:22;;;;;;;8.80;4.15;;;;;;;16.85;81.67;100197.47;4982750;28;20038;-76
2022/05/16 01:05:40;;;;;;;9.77;3.97;;;;;;;16.80;82.08;100218.16;4966972;28;20595;-76
2022/05/16 01:08:08;;;;;;;8.40;4.20;;;;;;;16.75;82.18;100219.16;4941636;28;20030;-76
2022/05/16 01:10:33;;;;;;;6.85;4.20;;;;;;;16.75;81.58;100230.38;4982625;28;20030;-76
2022/05/16 01:13:00;;;;;;;8.35;3.80;;;;;;;16.74;81.93;100241.91;4964110;28;20046;-76
2022/05/16 01:15:32;;;;;;;8.73;4.13;;;;;;;16.72;82.17;100250.69;4962823;28;20110;-76
2022/05/16 01:17:58;;;;;;;7.93;3.58;;;;;;;16.69;82.20;100245.75;4962941;28;20035;-76
2022/05/16 01:20:23;;;;;;;9.50;3.63;;;;;;;16.68;82.24;100238.50;4980190;28;20078;-76
2022/05/16 01:22:50;;;;;;;7.68;3.78;;;;;;;16.60;82.66;100230.97;4963180;28;20035;-76
2022/05/16 01:25:29;;;;;;;8.93;4.05;;;;;;;16.60;82.98;100236.56;4963049;28;20101;-76
2022/05/16 01:27:55;;;;;;;8.45;4.00;;;;;;;16.56;83.12;100241.25;4979843;28;20042;-76
2022/05/16 01:30:24;;;;;;;8.88;4.30;;;;;;;16.53;82.97;100245.53;4980247;28;20027;-76
2022/05/16 01:32:49;;;;;;;8.43;3.63;;;;;;;16.53;83.14;100247.53;4962636;28;20042;-76
2022/05/16 01:35:19;;;;;;;11.02;4.75;;;;;;;16.54;83.27;100249.16;4979879;28;20412;-76
2022/05/16 01:40:29;;;;;;;9.82;4.30;;;;;;;16.48;83.94;100245.75;4978994;28;20176;-77
2022/05/16 01:42:55;;;;;;;12.32;4.25;;;;;;;16.48;83.47;100251.34;4962336;28;20037;-76
2022/05/16 01:45:20;;;;;;;10.32;4.43;;;;;;;16.46;83.84;100248.06;4962639;28;20043;-76
2022/05/16 01:47:45;;;;;;;9.43;4.45;;;;;;;16.44;83.78;100255.19;4979837;28;20034;-77
2022/05/16 01:50:11;;;;;;;7.80;3.80;;;;;;;16.43;83.71;100237.53;4979712;28;20034;-76
2022/05/16 01:52:37;;;;;;;8.50;4.30;;;;;;;16.43;83.63;100251.53;4976000;28;20113;-76
2022/05/16 01:55:03;;;;;;;7.10;4.00;;;;;;;16.41;84.47;100245.47;4974744;28;20031;-76
2022/05/16 01:57:29;;;;;;;9.02;4.00;;;;;;;16.43;83.84;100250.72;4966518;28;20407;-76
2022/05/16 01:59:54;;;;;;;9.80;4.50;;;;;;;16.40;84.02;100262.63;4979715;28;20035;-76
2022/05/16 02:02:20;;;;;;;9.88;4.13;;;;;;;16.37;84.36;100261.31;4979581;28;20026;-76
2022/05/16 02:04:45;;;;;;;9.25;4.07;;;;;;;16.37;84.21;100260.50;4979416;28;20039;-77
2022/05/16 02:07:11;;;;;;;11.02;4.50;;;;;;;16.37;83.99;100268.91;4954216;28;20113;-77
2022/05/16 02:09:36;;;;;;;7.28;4.00;;;;;;;16.33;84.06;100279.16;4962208;28;20027;-76
2022/05/16 02:12:02;;;;;;;8.98;4.07;;;;;;;16.29;84.12;100277.00;4955869;28;20043;-76
2022/05/16 02:14:27;;;;;;;7.82;4.20;;;;;;;16.27;84.33;100276.53;4998386;28;20053;-76
2022/05/16 02:16:53;;;;;;;5.95;3.38;;;;;;;16.25;84.01;100278.84;4961900;28;20042;-76
2022/05/16 02:19:18;;;;;;;9.48;3.67;;;;;;;16.24;83.53;100285.63;4974707;28;20034;-77
2022/05/16 02:24:40;;;;;;;9.18;3.75;;;;;;;16.20;84.43;100279.03;4994121;28;20113;-77
2022/05/16 02:27:06;;;;;;;6.70;3.60;;;;;;;16.18;84.11;100281.34;4968110;28;20471;-77
2022/05/16 02:29:32;;;;;;;9.95;4.13;;;;;;;16.15;84.70;100276.44;4981072;28;20376;-76
2022/05/16 02:31:57;;;;;;;10.55;4.10;;;;;;;16.13;85.05;100280.72;4981151;28;20105;-77
2022/05/16 02:34:23;;;;;;;9.27;3.85;;;;;;;16.09;84.90;100289.81;4981126;28;20026;-77
2022/05/16 02:36:48;;;;;;;12.40;4.43;;;;;;;16.07;85.68;100285.69;4998382;28;20444;-77
2022/05/16 02:39:15;;;;;;;8.82;4.57;;;;;;;16.06;85.42;100300.88;4980893;28;20037;-77
2022/05/16 02:41:41;;;;;;;10.13;3.90;;;;;;;16.05;85.27;100307.66;4980632;28;20027;-77
2022/05/16 02:44:06;;;;;;;8.88;4.13;;;;;;;16.04;85.52;100303.19;4998204;28;20031;-77
2022/05/16 02:46:32;;;;;;;10.85;3.63;;;;;;;16.04;85.26;100303.19;4980974;28;20491;-77
2022/05/16 02:48:57;;;;;;;10.63;4.20;;;;;;;16.03;85.17;100295.94;4984734;28;20482;-77
2022/05/16 02:51:24;;;;;;;13.60;4.53;;;;;;;16.04;85.39;100303.19;4964647;28;20034;-77
2022/05/16 02:53:49;;;;;;;7.97;3.88;;;;;;;16.03;85.57;100304.34;4998034;28;20447;-76
2022/05/16 02:56:15;;;;;;;9.57;4.72;;;;;;;16.00;86.38;100305.84;4997661;28;20042;-76
2022/05/16 02:58:42;;;;;;;7.93;3.53;;;;;;;16.01;85.53;100307.47;4980583;28;20526;-76
2022/05/16 03:01:08;;;;;;;12.27;4.28;;;;;;;15.99;86.66;100308.97;4980892;28;20036;-77
2022/05/16 03:03:33;;;;;;;11.73;3.95;;;;;;;16.00;86.47;100305.84;4997919;28;20560;-76
2022/05/16 03:05:59;;;;;;;7.15;3.55;;;;;;;16.01;85.88;100299.06;4980304;28;20023;-77
2022/05/16 03:08:24;;;;;;;10.43;3.90;;;;;;;16.01;85.69;100307.47;4948056;28;20034;-77
2022/05/16 03:10:50;;;;;;;11.95;4.07;;;;;;;15.99;85.58;100304.19;4980038;28;20037;-76
2022/05/16 03:13:15;;;;;;;9.60;3.65;;;;;;;16.00;85.48;100307.81;4980106;28;20034;-77
2022/05/16 03:15:41;;;;;;;10.52;4.03;;;;;;;15.99;85.82;100294.97;4997533;28;20022;-76
2022/05/16 03:18:06;;;;;;;9.32;3.70;;;;;;;15.98;85.13;100302.53;4997519;28;20495;-76
2022/05/16 03:20:32;;;;;;;8.63;3.75;;;;;;;15.97;85.18;100311.28;4997585;28;20038;-76
2022/05/16 03:22:57;;;;;;;11.13;3.80;;;;;;;15.96;84.76;100312.44;4997485;28;20038;-77
2022/05/16 03:25:23;;;;;;;7.75;3.67;;;;;;;15.91;85.37;100316.25;4980071;28;20030;-77
2022/05/16 03:27:49;;;;;;;9.43;4.07;;;;;;;15.90;84.95;100310.97;4979742;28;20046;-77
2022/05/16 03:30:14;;;;;;;7.30;3.47;;;;;;;15.89;85.11;100317.75;4980037;28;20033;-77
2022/05/16 03:32:40;;;;;;;6.80;3.83;;;;;;;15.87;84.84;100309.66;4980034;28;20034;-77
2022/05/16 03:35:06;;;;;;;7.25;3.78;;;;;;;15.85;84.94;100307.22;4997196;28;20150;-76
2022/05/16 03:37:31;;;;;;;7.50;3.65;;;;;;;15.83;85.13;100303.91;4997252;28;20061;-76
2022/05/16 03:42:41;;;;;;;9.98;4.20;;;;;;;15.79;85.01;100310.50;4996869;28;20040;-77
2022/05/16 03:45:07;;;;;;;9.75;3.90;;;;;;;15.77;85.03;100310.88;4979733;28;20026;-76
2022/05/16 03:47:32;;;;;;;10.15;3.92;;;;;;;15.72;85.03;100305.44;4997116;28;20038;-77
2022/05/16 03:49:58;;;;;;;9.05;3.35;;;;;;;15.69;84.74;100308.91;4984482;28;20030;-77
2022/05/16 03:52:23;;;;;;;8.65;3.47;;;;;;;15.68;84.75;100326.00;4979556;28;20041;-76
2022/05/16 03:54:49;;;;;;;8.73;3.40;;;;;;;15.65;85.12;100333.06;4997032;28;20073;-76
2022/05/16 03:57:14;;;;;;;7.38;3.42;;;;;;;15.61;84.96;100340.50;4996892;28;20034;-76
2022/05/16 03:59:40;;;;;;;7.80;3.63;;;;;;;15.58;85.13;100339.19;4997069;28;20041;-76
2022/05/16 04:02:05;;;;;;;12.43;4.25;;;;;;;15.57;85.80;100339.50;4996868;28;20560;-77
2022/05/16 04:04:31;;;;;;;9.20;3.78;;;;;;;15.51;86.08;100347.25;4996798;28;20038;-76
2022/05/16 04:06:57;;;;;;;7.88;3.50;;;;;;;15.48;86.64;100342.34;4979094;28;20098;-76
2022/05/16 04:09:22;;;;;;;10.00;3.83;;;;;;;15.45;86.57;100342.19;4996916;28;20030;-76
2022/05/16 04:11:48;;;;;;;10.50;3.78;;;;;;;15.44;86.78;100349.75;4996400;28;20050;-77
2022/05/16 04:14:13;;;;;;;9.23;4.00;;;;;;;15.43;86.92;100356.47;4996682;28;20023;-76
2022/05/16 04:16:39;;;;;;;8.77;3.90;;;;;;;15.44;86.89;100357.34;4996529;28;20039;-76
2022/05/16 04:19:07;;;;;;;10.50;4.10;;;;;;;15.41;87.15;100362.44;4966154;28;20030;-76
2022/05/16 04:21:34;;;;;;;12.05;4.20;;;;;;;15.42;87.15;100366.88;4986023;28;20098;-76
2022/05/16 04:24:01;;;;;;;7.95;3.50;;;;;;;15.44;87.39;100371.31;4985723;28;20038;-76
2022/05/16 04:26:26;;;;;;;10.25;3.90;;;;;;;15.45;87.32;100370.16;5002882;28;20085;-77
2022/05/16 04:28:52;;;;;;;11.63;4.43;;;;;;;15.44;88.00;100362.94;5003210;28;20026;-76
2022/05/16 04:31:17;;;;;;;9.90;3.97;;;;;;;15.46;87.84;100371.78;4985729;28;20026;-76
2022/05/16 04:33:43;;;;;;;9.35;3.50;;;;;;;15.46;88.40;100367.03;5003247;28;20030;-76
2022/05/16 04:36:08;;;;;;;8.80;3.70;;;;;;;15.48;87.92;100370.31;4985507;28;20058;-76
2022/05/16 04:38:34;;;;;;;15.18;4.78;;;;;;;15.49;88.26;100368.34;4985736;28;20034;-76
2022/05/16 04:43:43;;;;;;;9.52;3.67;;;;;;;15.48;87.55;100389.91;4988399;28;20108;-77
2022/05/16 04:46:09;;;;;;;13.15;4.72;;;;;;;15.46;87.96;100385.78;4985631;28;20034;-76
2022/05/16 04:48:35;;;;;;;9.80;4.35;;;;;;;15.45;87.98;100386.97;5002962;28;20104;-76
2022/05/16 04:51:00;;;;;;;11.35;3.85;;;;;;;15.42;87.79;100389.25;5003396;28;20458;-76
2022/05/16 04:53:26;;;;;;;13.25;4.85;;;;;;;15.39;88.38;100392.72;5002953;28;20039;-77
2022/05/16 04:55:52;;;;;;;15.07;4.00;;;;;;;15.38;88.29;100391.06;4985091;28;20061;-77
2022/05/16 04:58:17;;;;;;;8.40;3.85;;;;;;;15.37;88.20;100392.22;4969618;28;20038;-76
2022/05/16 05:00:43;;;;;;;12.93;4.13;;;;;;;15.36;88.67;100400.94;5003047;28;20034;-76
2022/05/16 05:03:09;;;;;;;12.30;3.83;;;;;;;15.36;88.03;100406.53;5002836;28;20030;-77
2022/05/16 05:05:35;;;;;;;10.75;4.22;;;;;;;15.35;88.83;100405.72;4967506;28;20527;-77
2022/05/16 05:08:01;;;;;;;14.45;4.47;;;;;;;15.34;90.40;100403.25;5002883;28;20030;-76
2022/05/16 05:16:06;;;;;;;11.10;4.10;;;;;;;15.41;89.78;100432.38;4952300;28;20110;-72
2022/05/16 05:18:31;;;;;;;14.32;4.68;;;;;;;15.43;89.65;100440.44;4950344;28;20034;-73
2022/05/16 05:20:57;;;;;;;11.32;4.07;;;;;;;15.47;89.94;100440.63;4966009;28;20495;-73
2022/05/16 05:23:22;;;;;;;12.93;3.90;;;;;;;15.52;89.18;100448.88;4950198;28;20034;-73
2022/05/16 05:25:47;;;;;;;11.48;3.95;;;;;;;15.58;89.92;100450.34;4950026;28;20027;-73
2022/05/16 05:28:13;;;;;;;10.13;4.00;;;;;;;15.65;89.66;100453.44;4934082;28;20042;-73
2022/05/16 05:30:38;;;;;;;15.35;5.15;;;;;;;15.74;91.49;100454.31;4931303;28;20058;-73
2022/05/16 05:33:04;;;;;;;12.82;4.53;;;;;;;15.84;89.64;100455.94;4946818;28;20502;-73
2022/05/16 05:35:30;;;;;;;9.38;3.55;;;;;;;15.99;88.71;100463.00;4946669;28;20109;-73
2022/05/16 05:37:56;;;;;;;11.75;4.15;;;;;;;16.12;90.19;100453.59;4914966;28;20069;-73
2022/05/16 05:40:22;;;;;;;12.05;3.67;;;;;;;16.27;89.41;100464.28;4946696;28;20058;-73
2022/05/16 05:42:50;;;;;;;10.65;3.92;;;;;;;16.46;90.18;100469.50;4946503;28;20046;-74
2022/05/16 05:45:18;;;;;;;10.88;3.75;;;;;;;16.64;88.81;100478.69;4931868;28;20031;-73
2022/05/16 05:47:43;;;;;;;9.90;3.58;;;;;;;16.82;87.13;100476.63;4911873;29;20061;-73
2022/05/16 05:50:18;;;;;;;14.38;4.05;;;;;;;17.01;85.96;100476.22;4927966;29;20384;-73
2022/05/16 05:52:43;;;;;;;9.23;3.58;;;;;;;17.20;85.34;100484.22;4919044;28;20038;-73
2022/05/16 05:55:09;;;;;;;13.57;4.05;;;;;;;17.38;84.86;100484.91;4930416;28;20391;-73
2022/05/16 05:57:35;;;;;;;9.93;3.92;;;;;;;17.56;84.18;100480.81;4946322;28;20034;-73
2022/05/16 06:00:00;;;;;;;10.13;3.30;;;;;;;17.75;82.97;100485.97;4930716;28;20472;-73
2022/05/16 06:02:25;;;;;;;12.60;4.07;;;;;;;17.94;83.50;100499.56;4943189;29;20027;-73
2022/05/16 06:04:51;;;;;;;7.75;3.05;;;;;;;18.12;81.81;100499.38;4933096;28;20034;-73
2022/05/16 06:07:17;;;;;;;9.07;3.45;;;;;;;18.31;81.47;100502.50;4914594;28;20030;-74
2022/05/16 06:09:42;;;;;;;11.80;3.58;;;;;;;18.47;81.18;100509.13;4962093;28;20041;-74
2022/05/16 06:12:09;;;;;;;10.43;3.33;;;;;;;18.61;79.60;100519.19;4914264;28;20070;-74
2022/05/16 06:14:34;;;;;;;10.05;3.42;;;;;;;18.73;78.89;100517.25;4930004;28;20058;-74
2022/05/16 06:17:00;;;;;;;11.18;3.72;;;;;;;18.81;78.25;100515.53;4946097;28;20037;-74
2022/05/16 06:19:25;;;;;;;14.90;4.05;;;;;;;18.84;79.04;100517.66;4946244;28;20112;-72
2022/05/16 06:21:51;;;;;;;12.07;3.10;;;;;;;18.89;77.92;100525.88;4946387;29;20114;-75
2022/05/16 06:27:06;;;;;;;9.13;2.72;;;;;;;18.96;78.40;100536.53;4960057;28;20043;-68
2022/05/16 06:29:31;;;;;;;11.10;3.30;;;;;;;19.00;77.91;100547.91;4978851;28;20037;-68
2022/05/16 06:31:57;;;;;;;9.82;3.10;;;;;;;19.02;77.81;100552.00;4979193;28;20035;-68
2022/05/16 06:34:22;;;;;;;9.88;3.33;;;;;;;19.07;77.78;100543.34;4978973;28;20111;-68
2022/05/16 06:36:48;;;;;;;8.40;3.08;;;;;;;19.13;77.55;100553.19;4978944;28;20069;-69
2022/05/16 06:39:14;;;;;;;14.65;3.28;;;;;;;19.17;78.87;100545.69;4961725;28;20042;-68
2022/05/16 06:41:39;;;;;;;8.63;2.58;;;;;;;19.26;77.33;100556.03;4945236;28;20116;-68
2022/05/16 06:44:05;;;;;;;10.70;3.55;;;;;;;19.31;77.55;100548.16;4961631;28;20031;-68
2022/05/16 06:46:30;;;;;;;9.25;3.38;;;;;;;19.38;76.71;100548.38;4914235;28;20073;-68
2022/05/16 06:48:56;;;;;;;10.95;3.25;;;;;;;19.52;76.09;100541.56;4945554;28;20487;-68
2022/05/16 06:51:21;;;;;;;12.38;3.03;;;;;;;19.62;76.16;100538.28;4961504;28;20058;-69
2022/05/16 06:53:47;;;;;;;10.70;3.17;;;;;;;19.74;75.50;100537.47;4945232;28;20034;-69
2022/05/16 06:56:13;;;;;;;13.52;3.40;;;;;;;19.86;75.25;100545.88;4978322;28;20035;-69
2022/05/16 06:58:38;;;;;;;12.43;3.33;;;;;;;20.01;74.70;100558.41;4945345;28;20034;-69
2022/05/16 07:01:04;;;;;;;9.50;2.90;;;;;;;20.12;74.07;100565.19;4920678;29;20027;-68
2022/05/16 07:03:30;;;;;;;11.07;3.17;;;;;;;20.25;73.55;100568.78;4957420;28;20027;-69
2022/05/16 07:05:56;;;;;;;13.27;3.58;;;;;;;20.40;73.49;100581.31;4926382;28;20035;-69
2022/05/16 07:08:21;;;;;;;11.00;3.20;;;;;;;20.52;73.24;100584.88;4944802;28;20039;-69
2022/05/16 07:10:48;;;;;;;10.88;2.80;;;;;;;20.61;72.16;100584.75;4925995;28;20027;-69
2022/05/16 07:13:14;;;;;;;9.00;2.70;;;;;;;20.70;71.57;100576.97;4948645;28;20038;-69
2022/05/16 07:15:39;;;;;;;11.32;3.33;;;;;;;20.82;71.57;100572.44;4963115;28;20525;-69
2022/05/16 07:18:05;;;;;;;10.05;2.83;;;;;;;20.90;71.43;100577.91;4964200;28;20037;-69
2022/05/16 07:20:31;;;;;;;10.70;2.80;;;;;;;21.01;70.46;100578.19;4948204;28;20034;-68
2022/05/16 07:22:58;;;;;;;11.68;3.20;;;;;;;21.15;70.32;100578.53;4963891;28;20022;-69
2022/05/16 07:25:25;;;;;;;9.60;2.50;;;;;;;21.27;69.65;100574.00;4964685;28;20491;-69
2022/05/16 07:27:57;;;;;;;8.30;2.58;;;;;;;21.40;69.02;100564.25;4963817;28;20057;-69
2022/05/16 07:30:32;;;;;;;10.47;2.73;;;;;;;21.52;68.79;100563.34;4965585;28;20030;-69
2022/05/16 07:32:58;;;;;;;9.93;2.58;;;;;;;21.71;68.14;100565.41;4947953;28;20552;-68
2022/05/16 07:35:30;;;;;;;8.30;2.17;;;;;;;21.76;67.79;100556.63;4963820;28;20118;-69
2022/05/16 07:37:56;;;;;;;8.18;2.72;;;;;;;21.99;67.12;100562.38;4980331;28;20034;-69
2022/05/16 07:40:23;;;;;;;9.50;2.35;;;;;;;22.10;66.66;100560.59;4932315;28;20026;-69
2022/05/16 07:42:50;;;;;;;9.23;2.60;;;;;;;22.22;66.18;100551.19;4931747;28;20022;-69
2022/05/16 07:45:15;;;;;;;9.82;2.47;;;;;;;22.38;65.19;100560.41;4961343;28;20483;-69
2022/05/16 07:47:41;;;;;;;9.18;2.30;;;;;;;22.47;64.98;100554.53;4963263;28;20038;-69
2022/05/16 07:50:07;;;;;;;8.50;2.42;;;;;;;22.62;64.50;100558.44;4968355;28;20030;-69
2022/05/16 07:52:33;;;;;;;7.10;2.70;;;;;;;22.71;63.82;100564.69;4960119;28;20049;-69
2022/05/16 07:54:58;;;;;;;10.75;2.00;;;;;;;22.86;64.19;100563.75;4928890;28;20022;-69
2022/05/16 07:57:24;;;;;;;9.63;2.40;;;;;;;23.01;63.04;100561.22;4978691;28;20041;-68
2022/05/16 07:59:49;;;;;;;8.13;2.30;;;;;;;23.16;62.18;100557.44;4963548;28;20034;-69
2022/05/16 08:02:15;;;;;;;12.07;2.50;;;;;;;23.30;61.93;100566.19;4979467;28;20146;-69
2022/05/16 08:04:41;;;;;;;9.60;2.50;;;;;;;23.45;61.46;100564.38;4963430;28;20510;-70
2022/05/16 08:07:07;;;;;;;9.05;1.92;;;;;;;23.60;60.64;100579.63;4947288;28;20065;-69
2022/05/16 08:12:30;;;;;;;8.60;2.33;;;;;;;23.81;59.90;100579.16;4953319;28;20050;-69
2022/05/16 08:14:56;;;;;;;9.05;2.30;;;;;;;23.84;59.49;100570.69;4944882;28;20535;-69
2022/05/16 08:17:22;;;;;;;10.80;2.00;;;;;;;23.90;59.37;100564.69;4944269;28;20035;-69
2022/05/16 08:19:48;;;;;;;7.82;2.00;;;;;;;23.94;58.94;100562.72;4943828;28;20041;-69
2022/05/16 08:22:13;;;;;;;9.50;2.33;;;;;;;24.00;58.52;100569.69;4928349;28;20034;-70
2022/05/16 08:24:40;;;;;;;8.60;1.90;;;;;;;24.11;58.53;100576.31;4944275;28;20056;-69
2022/05/16 08:27:06;;;;;;;7.22;1.90;;;;;;;24.25;58.83;100579.34;4941057;29;20038;-69
2022/05/16 08:29:32;;;;;;;5.50;1.60;;;;;;;24.38;58.54;100573.44;4944101;28;20039;-69
2022/05/16 08:31:58;;;;;;;6.10;1.70;;;;;;;24.57;57.37;100580.97;4944183;28;20392;-69
2022/05/16 08:34:25;;;;;;;9.45;2.00;;;;;;;24.58;56.83;100583.44;4959789;28;20039;-69
2022/05/16 08:39:55;;;;;;;10.55;2.00;;;;;;;24.77;56.30;100590.97;4945299;28;20023;-69
2022/05/16 08:42:49;;;;;;;6.22;1.85;;;;;;;24.88;55.10;100594.72;4951554;29;20031;-69
2022/05/16 08:45:31;;;;;;;11.50;2.20;;;;;;;25.05;55.72;100586.78;4941792;28;20443;-69
2022/05/16 08:48:14;;;;;;;11.02;2.88;;;;;;;25.18;54.84;100591.81;4947091;28;20035;-69
2022/05/16 08:50:42;;;;;;;7.13;1.48;;;;;;;25.29;54.49;100591.06;4933729;29;20034;-69
2022/05/16 08:53:18;;;;;;;8.07;2.13;;;;;;;25.37;54.36;100596.41;4976966;28;20051;-69
2022/05/16 08:55:47;;;;;;;9.40;2.08;;;;;;;25.52;53.94;100588.84;4955198;28;20445;-69
2022/05/16 08:58:24;;;;;;;9.25;2.08;;;;;;;25.51;53.45;100584.34;4942215;28;20098;-69
2022/05/16 09:00:55;;;;;;;8.85;1.85;;;;;;;25.52;53.45;100588.00;4945027;28;20041;-69
2022/05/16 09:03:56;;;;;;;5.63;1.80;;;;;;;25.70;52.84;100588.16;4928195;28;20063;-69
2022/05/16 09:06:47;;;;;;;9.30;1.95;;;;;;;25.84;52.78;100580.53;4954677;28;20039;-69
2022/05/16 09:09:15;;;;;;;9.88;1.75;;;;;;;25.98;52.02;100585.50;4950351;28;20450;-69
2022/05/16 09:11:55;;;;;;;6.82;1.48;;;;;;;26.19;51.98;100595.41;4946739;28;20472;-70
2022/05/16 09:14:38;;;;;;;9.30;1.75;;;;;;;26.25;51.56;100605.19;4930359;28;20023;-70
2022/05/16 09:17:32;;;;;;;7.57;1.50;;;;;;;26.44;51.23;100599.16;4963121;28;20082;-70
2022/05/16 09:20:11;;;;;;;6.93;1.50;;;;;;;26.44;50.92;100604.84;4916772;28;20546;-69
2022/05/16 09:23:09;;;;;;;6.10;1.83;;;;;;;26.50;50.03;100606.13;4947535;28;20391;-70
2022/05/16 09:25:59;;;;;;;6.30;1.70;;;;;;;26.68;50.46;100593.97;4937148;28;20134;-69
2022/05/16 09:28:37;;;;;;;7.50;1.80;;;;;;;26.76;50.10;100604.19;4962749;28;20032;-70
2022/05/16 09:31:20;;;;;;;6.65;1.48;;;;;;;26.82;49.92;100605.41;4948707;28;20061;-70
2022/05/16 09:33:51;;;;;;;8.27;1.77;;;;;;;26.79;49.59;100611.91;4948483;28;20027;-69
2022/05/16 09:36:20;;;;;;;9.32;1.80;;;;;;;26.84;49.39;100614.38;4946688;28;20035;-70
2022/05/16 09:38:45;;;;;;;5.60;1.50;;;;;;;26.87;49.21;100616.41;4963246;28;20427;-70
2022/05/16 09:41:24;;;;;;;9.07;1.80;;;;;;;26.88;49.01;100609.50;4946505;28;20035;-70
2022/05/16 09:44:23;;;;;;;6.57;1.90;;;;;;;26.92;49.13;100607.47;4948377;28;20023;-70
2022/05/16 09:46:49;;;;;;;8.35;1.77;;;;;;;27.00;49.23;100611.16;4965458;28;20550;-70
2022/05/16 09:49:25;;;;;;;8.00;1.75;;;;;;;27.11;48.78;100606.28;4943311;29;20023;-70
2022/05/16 09:51:56;;;;;;;6.35;1.55;;;;;;;27.26;48.97;100606.34;4940782;28;20066;-70
2022/05/16 09:54:36;;;;;;;6.03;1.30;;;;;;;27.36;48.52;100611.25;4931219;28;20069;-70
2022/05/16 09:57:18;;;;;;;6.47;1.40;;;;;;;27.38;48.48;100612.44;4950055;28;20035;-70
2022/05/16 09:59:52;;;;;;;6.20;1.48;;;;;;;27.41;47.08;100619.38;4962923;28;20132;-70
2022/05/16 10:02:25;;;;;;;4.60;1.33;;;;;;;27.40;47.53;100624.25;4946773;28;20042;-70
2022/05/16 10:04:56;;;;;;;7.60;1.45;;;;;;;27.54;46.63;100622.63;4945684;28;20118;-69
2022/05/16 10:07:26;;;;;;;5.32;1.20;;;;;;;27.62;46.70;100612.84;4946127;28;20078;-70
2022/05/16 10:09:52;;;;;;;6.00;1.60;;;;;;;27.65;46.19;100616.94;4944678;28;20571;-70
2022/05/16 10:12:20;;;;;;;11.27;1.70;;;;;;;27.72;45.94;100616.91;4942376;28;20054;-69
2022/05/16 10:14:46;;;;;;;8.85;1.73;;;;;;;27.61;46.34;100606.34;4959136;28;20057;-70
2022/05/16 10:17:15;;;;;;;8.20;1.23;;;;;;;27.67;44.50;100603.88;4953224;28;20050;-69
2022/05/16 10:19:41;;;;;;;5.75;1.25;;;;;;;27.78;45.58;100610.41;4978948;28;20027;-69
2022/05/16 10:22:17;;;;;;;6.00;1.38;;;;;;;27.77;45.11;100608.75;4981155;28;20043;-69
2022/05/16 10:24:52;;;;;;;7.10;1.30;;;;;;;27.88;44.90;100610.81;4980891;28;20040;-69
2022/05/16 10:27:28;;;;;;;5.68;1.35;;;;;;;27.82;44.22;100619.78;4981739;28;20022;-69
2022/05/16 10:29:55;;;;;;;8.07;1.52;;;;;;;27.99;44.44;100620.97;4933444;28;20030;-69
2022/05/16 10:35:11;;;;;;;5.07;1.13;;;;;;;28.24;44.57;100618.06;4998379;28;20046;-69
2022/05/16 10:37:44;;;;;;;4.35;0.93;;;;;;;28.27;43.87;100614.38;4980944;28;20161;-69
2022/05/16 10:40:35;;;;;;;;;;;;;;;28.37;44.45;100629.06;4962150;28;20039;-69
2022/05/16 10:43:16;;;;;;;5.32;0.93;;;;;;;28.45;44.35;100624.97;4990834;28;19916;-69
2022/05/16 10:45:47;;;;;;;5.13;1.30;;;;;;;28.42;43.73;100622.91;4981711;28;20042;-69
2022/05/16 10:48:14;;;;;;;4.72;1.08;;;;;;;28.40;42.81;100622.50;4996866;28;20041;-69
2022/05/16 10:50:47;;;;;;;3.85;0.98;;;;;;;28.38;41.57;100625.75;4997986;28;20038;-69
2022/05/16 10:53:28;;;;;;;6.65;1.17;;;;;;;28.28;42.32;100633.16;4965104;28;20561;-69
2022/05/16 10:56:02;;;;;;;5.88;1.35;;;;;;;28.10;43.32;100638.09;4987751;28;20047;-70
2022/05/16 10:58:31;;;;;;;4.95;1.27;;;;;;;27.98;43.53;100632.81;4997828;28;20065;-70
2022/05/16 11:01:04;;;;;;;6.07;1.30;;;;;;;27.84;43.10;100636.50;4961577;28;20483;-69
2022/05/16 11:03:59;;;;;;;2.88;0.95;;;;;;;27.78;44.21;100636.09;4948625;28;20112;-70
2022/05/16 11:06:34;;;;;;;5.50;1.30;;;;;;;27.65;44.38;100646.28;4957555;28;20022;-69
2022/05/16 11:09:09;;;;;;;6.18;1.30;;;;;;;27.57;44.28;100644.63;4965020;28;20113;-69
2022/05/16 11:11:36;;;;;;;5.63;1.30;;;;;;;27.40;43.91;100646.25;4973315;28;20102;-69
2022/05/16 11:14:24;;;;;;;3.88;1.05;;;;;;;27.24;44.37;100660.91;4960965;28;20042;-69
2022/05/16 11:16:50;;;;;;;5.95;1.30;;;;;;;27.05;44.50;100644.13;4954464;28;20376;-69
2022/05/16 11:19:43;;;;;;;5.53;1.20;;;;;;;26.91;45.00;100647.75;4913657;28;20054;-69
2022/05/16 11:22:25;;;;;;;3.80;1.13;;;;;;;26.72;45.97;100648.94;4912660;28;20035;-69
2022/05/16 11:25:11;;;;;;;7.27;1.17;;;;;;;26.56;46.46;100634.22;4937121;28;20030;-69
2022/05/16 11:27:58;;;;;;;5.82;1.27;;;;;;;26.48;46.68;100641.88;4959237;28;20109;-70
2022/05/16 11:30:39;;;;;;;3.45;0.95;;;;;;;26.42;46.99;100646.34;4976902;28;20380;-69
2022/05/16 11:33:27;;;;;;;2.78;0.93;;;;;;;26.36;47.41;100645.91;4961789;28;20035;-70
2022/05/16 11:35:59;;;;;;;3.47;0.85;;;;;;;26.44;47.02;100644.72;4962743;28;20058;-70
2022/05/16 11:38:49;;;;;;;4.47;1.02;;;;;;;26.55;47.62;100638.28;4920202;28;20688;-70
2022/05/16 11:41:40;;;;;;;4.18;1.15;;;;;;;26.70;47.00;100642.81;4960072;28;20031;-69
2022/05/16 11:44:33;;;;;;;3.35;1.00;;;;;;;26.82;47.29;100642.44;4958868;28;20043;-70
2022/05/16 11:47:10;;;;;;;;;;;;;;;26.82;47.31;100648.16;4946273;28;20387;-69
2022/05/16 11:49:48;;;;;;;3.78;1.35;;;;;;;26.87;47.09;100641.25;4960937;28;19914;-69
2022/05/16 11:52:21;;;;;;;7.53;1.50;;;;;;;26.90;46.17;100641.25;4929511;28;20043;-69
2022/05/16 11:54:56;;;;;;;9.32;1.45;;;;;;;26.96;46.43;100645.34;4943876;28;20073;-69
2022/05/16 12:02:51;;;;;;;4.55;1.30;;;;;;;27.22;46.25;100653.97;4959980;28;20023;-69
2022/05/16 12:05:19;;;;;;;3.38;1.20;;;;;;;27.35;46.01;100649.50;4960114;28;20039;-69
2022/05/16 12:07:46;;;;;;;5.25;1.30;;;;;;;27.43;45.46;100636.09;4977485;28;20484;-69
2022/05/16 12:10:14;;;;;;;5.35;1.48;;;;;;;27.52;45.36;100636.47;4922135;28;20525;-69